Time;durP1;ratioP1;P1;durP2;ratioP2;P2;SDS_P1;SDS_P2;PMS_P1;PMS_P2;Temp;Humidity;BMP_temperature;BMP_pressure;BME280_temperature;BME280_humidity;BME280_pressure;Samples;Min_cycle;Max_cycle;Signal;HPM_P1;HPM_P2
2021/03/17 00:01:06;;;;;;;2.67;2.03;;;6.30;42.30;;;;;;4975438;28;20217;-59
2021/03/17 00:03:33;;;;;;;4.60;2.27;;;6.20;43.20;;;;;;4972331;28;20225;-59
2021/03/17 00:06:00;;;;;;;5.63;2.67;;;6.10;43.40;;;;;;4975335;28;20318;-59
2021/03/17 00:08:27;;;;;;;9.87;2.07;;;6.10;43.90;;;;;;4975138;28;20248;-58
2021/03/17 00:10:55;;;;;;;2.77;1.73;;;6.00;44.50;;;;;;4988420;28;20213;-58
2021/03/17 00:13:24;;;;;;;4.27;2.20;;;5.90;44.80;;;;;;5007643;28;20213;-58
2021/03/17 00:15:53;;;;;;;5.90;2.40;;;5.80;45.20;;;;;;4971503;28;20266;-58
2021/03/17 00:18:21;;;;;;;3.07;2.07;;;5.70;45.60;;;;;;4986488;28;20336;-58
2021/03/17 00:20:48;;;;;;;2.80;2.33;;;5.60;45.90;;;;;;4972171;28;20209;-58
2021/03/17 00:23:17;;;;;;;5.70;1.83;;;5.50;47.10;;;;;;4999630;28;20389;-59
2021/03/17 00:25:45;;;;;;;3.33;2.10;;;5.30;47.20;;;;;;5013027;28;20296;-59
2021/03/17 00:28:13;;;;;;;3.13;2.00;;;5.30;47.10;;;;;;5009200;28;20292;-58
2021/03/17 00:30:40;;;;;;;7.60;2.10;;;5.30;47.30;;;;;;5014597;28;20200;-58
2021/03/17 00:33:13;;;;;;;6.03;2.10;;;5.20;47.30;;;;;;5013425;28;20274;-58
2021/03/17 00:35:41;;;;;;;6.43;2.03;;;5.20;47.30;;;;;;5010110;28;20653;-58
2021/03/17 00:38:09;;;;;;;2.77;2.37;;;5.20;47.30;;;;;;5008488;28;20227;-58
2021/03/17 00:40:36;;;;;;;3.53;2.00;;;5.20;47.60;;;;;;5011002;28;20210;-58
2021/03/17 00:43:03;;;;;;;3.40;2.10;;;5.20;48.40;;;;;;5014949;28;20290;-58
2021/03/17 00:45:30;;;;;;;7.87;2.40;;;5.10;48.60;;;;;;5009200;28;20798;-58
2021/03/17 00:47:57;;;;;;;3.37;2.10;;;5.00;48.40;;;;;;5014038;28;20208;-58
2021/03/17 00:50:24;;;;;;;5.83;2.40;;;4.90;48.60;;;;;;5008850;28;20662;-58
2021/03/17 00:52:54;;;;;;;6.53;1.93;;;4.90;49.20;;;;;;5013980;28;20211;-58
2021/03/17 00:55:21;;;;;;;6.93;2.57;;;4.80;49.50;;;;;;5009814;28;20527;-58
2021/03/17 00:57:47;;;;;;;5.60;2.30;;;4.80;49.60;;;;;;5013369;28;20200;-59
2021/03/17 01:00:16;;;;;;;4.27;2.13;;;4.80;49.60;;;;;;5012696;28;20208;-59
2021/03/17 01:02:42;;;;;;;3.83;2.10;;;4.70;49.50;;;;;;5009701;28;20204;-58
2021/03/17 01:05:10;;;;;;;6.83;2.40;;;4.70;49.50;;;;;;5007638;28;20209;-58
2021/03/17 01:07:37;;;;;;;4.93;2.37;;;4.70;49.70;;;;;;5008330;28;20242;-58
2021/03/17 01:10:13;;;;;;;3.30;2.33;;;4.70;49.80;;;;;;5012598;28;20295;-58
2021/03/17 01:12:41;;;;;;;4.23;2.40;;;4.70;50.40;;;;;;5009365;28;20207;-58
2021/03/17 01:15:12;;;;;;;3.13;2.07;;;4.60;50.60;;;;;;5010184;28;20211;-58
2021/03/17 01:17:39;;;;;;;4.13;2.30;;;4.50;50.50;;;;;;4994839;28;20537;-58
2021/03/17 01:20:08;;;;;;;2.37;1.83;;;4.50;50.40;;;;;;5009482;28;20230;-58
2021/03/17 01:22:35;;;;;;;3.03;1.83;;;4.50;50.60;;;;;;5011840;28;20246;-58
2021/03/17 01:25:08;;;;;;;4.70;2.27;;;4.50;50.80;;;;;;4999174;28;20646;-58
2021/03/17 01:27:35;;;;;;;3.37;2.27;;;4.50;50.80;;;;;;4994111;28;20235;-58
2021/03/17 01:30:04;;;;;;;3.93;2.37;;;4.50;50.80;;;;;;4994500;28;20215;-58
2021/03/17 01:32:30;;;;;;;4.87;1.90;;;4.50;51.20;;;;;;5013211;28;20725;-58
2021/03/17 01:34:57;;;;;;;3.73;2.00;;;4.40;51.40;;;;;;5002832;28;20208;-58
2021/03/17 01:37:24;;;;;;;3.60;2.03;;;4.40;51.60;;;;;;5012015;28;20218;-58
2021/03/17 01:39:51;;;;;;;2.50;2.00;;;4.30;51.10;;;;;;5010525;28;20645;-58
2021/03/17 01:42:18;;;;;;;4.53;2.10;;;4.30;50.70;;;;;;5004398;28;20211;-58
2021/03/17 01:44:50;;;;;;;5.87;1.93;;;4.30;50.90;;;;;;4997588;28;20311;-58
2021/03/17 01:47:16;;;;;;;4.33;2.00;;;4.30;50.60;;;;;;5007232;28;20235;-58
2021/03/17 01:49:44;;;;;;;4.30;1.90;;;4.40;49.90;;;;;;5009000;28;20208;-58
2021/03/17 01:52:11;;;;;;;4.10;1.70;;;4.50;49.50;;;;;;4995531;28;20318;-58
2021/03/17 01:54:38;;;;;;;3.40;2.23;;;4.70;49.70;;;;;;5000222;28;20580;-58
2021/03/17 01:57:05;;;;;;;2.20;1.80;;;4.80;49.00;;;;;;5011440;28;20211;-58
2021/03/17 01:59:34;;;;;;;2.80;2.17;;;4.80;49.00;;;;;;5002986;28;20231;-58
2021/03/17 02:02:02;;;;;;;3.07;1.97;;;4.80;49.30;;;;;;5011762;28;20223;-58
2021/03/17 02:04:29;;;;;;;8.47;2.20;;;4.80;49.70;;;;;;5012832;28;20208;-58
2021/03/17 02:06:56;;;;;;;2.70;2.00;;;4.80;49.70;;;;;;5007423;28;20247;-58
2021/03/17 02:09:23;;;;;;;5.90;2.27;;;4.70;49.60;;;;;;4995514;28;20215;-58
2021/03/17 02:12:04;;;;;;;3.30;1.90;;;4.70;49.90;;;;;;4993448;28;20231;-58
2021/03/17 02:15:01;;;;;;;6.80;1.83;;;4.60;50.10;;;;;;5008801;28;20208;-58
2021/03/17 02:17:28;;;;;;;4.70;1.90;;;4.50;50.10;;;;;;5001517;28;20218;-58
2021/03/17 02:20:30;;;;;;;4.63;2.07;;;4.40;49.90;;;;;;5012096;28;20208;-58
2021/03/17 02:23:17;;;;;;;4.00;2.20;;;4.50;50.60;;;;;;5010314;28;20235;-58
2021/03/17 02:26:16;;;;;;;5.37;2.30;;;4.40;50.60;;;;;;5012652;28;20263;-58
2021/03/17 02:29:06;;;;;;;2.47;1.87;;;4.40;50.80;;;;;;4980901;28;20239;-58
2021/03/17 02:31:56;;;;;;;3.77;2.30;;;4.40;51.10;;;;;;4989679;28;20208;-58
2021/03/17 02:34:26;;;;;;;4.70;1.90;;;4.30;51.90;;;;;;5015288;28;20212;-58
2021/03/17 02:36:59;;;;;;;3.60;2.07;;;4.20;51.50;;;;;;5009413;28;20328;-58
2021/03/17 02:39:36;;;;;;;4.80;1.83;;;4.20;51.90;;;;;;5012229;28;20215;-59
2021/03/17 02:42:12;;;;;;;6.53;2.30;;;4.00;51.80;;;;;;4996450;28;20676;-58
2021/03/17 02:45:05;;;;;;;4.93;2.63;;;3.90;51.80;;;;;;5012316;28;20281;-59
2021/03/17 02:47:33;;;;;;;3.33;2.23;;;3.80;52.40;;;;;;5009658;28;20234;-58
2021/03/17 02:50:02;;;;;;;6.97;2.10;;;3.80;52.90;;;;;;5003463;28;20636;-59
2021/03/17 02:52:33;;;;;;;7.37;2.07;;;3.80;53.20;;;;;;5009415;28;20203;-59
2021/03/17 02:55:02;;;;;;;3.10;1.90;;;3.70;53.50;;;;;;5011893;28;20200;-59
2021/03/17 02:57:33;;;;;;;4.93;2.03;;;3.70;53.30;;;;;;5010532;28;20207;-58
2021/03/17 03:00:01;;;;;;;4.67;2.20;;;3.60;53.60;;;;;;5005101;28;20212;-59
2021/03/17 03:02:28;;;;;;;1.83;1.50;;;3.60;53.20;;;;;;5006774;28;20215;-59
2021/03/17 03:04:56;;;;;;;4.70;2.03;;;3.60;52.90;;;;;;5009694;28;20211;-58
2021/03/17 03:07:23;;;;;;;2.10;1.50;;;3.60;53.00;;;;;;5011336;28;20231;-58
2021/03/17 03:09:51;;;;;;;4.13;1.77;;;3.70;53.00;;;;;;5008887;28;20211;-58
2021/03/17 03:12:19;;;;;;;2.03;1.70;;;3.70;52.80;;;;;;4993386;28;20208;-58
2021/03/17 03:14:46;;;;;;;2.97;2.47;;;3.70;52.50;;;;;;5007610;28;20223;-59
2021/03/17 03:17:14;;;;;;;6.47;2.67;;;3.70;52.20;;;;;;5000446;28;20248;-58
2021/03/17 03:19:48;;;;;;;6.27;2.33;;;3.70;52.10;;;;;;5007274;28;20608;-58
2021/03/17 03:22:16;;;;;;;4.33;2.10;;;3.70;52.50;;;;;;4989818;28;20558;-58
2021/03/17 03:24:48;;;;;;;2.00;1.57;;;3.60;52.80;;;;;;4982864;28;20266;-58
2021/03/17 03:27:16;;;;;;;3.27;1.80;;;3.60;52.90;;;;;;4982403;28;20678;-58
2021/03/17 03:29:43;;;;;;;2.83;1.87;;;3.60;52.90;;;;;;4983255;28;20216;-58
2021/03/17 03:32:09;;;;;;;3.10;2.00;;;3.50;52.90;;;;;;4992125;28;20227;-58
2021/03/17 03:34:38;;;;;;;6.87;1.53;;;3.50;52.90;;;;;;4992659;28;20208;-58
2021/03/17 03:37:05;;;;;;;3.20;2.00;;;3.40;52.70;;;;;;4989519;28;20223;-58
2021/03/17 03:39:32;;;;;;;6.60;1.87;;;3.40;51.80;;;;;;4989864;28;20209;-58
2021/03/17 03:41:59;;;;;;;2.30;2.10;;;3.50;52.00;;;;;;4991590;28;20213;-59
2021/03/17 03:44:26;;;;;;;5.07;2.43;;;3.50;52.10;;;;;;4991709;28;20212;-58
2021/03/17 03:46:53;;;;;;;4.57;1.87;;;3.50;51.90;;;;;;4991278;28;20232;-58
2021/03/17 03:49:20;;;;;;;4.87;1.87;;;3.40;52.20;;;;;;4994841;28;20274;-58
2021/03/17 03:52:05;;;;;;;3.23;2.10;;;3.40;52.50;;;;;;4991635;28;20212;-58
2021/03/17 03:54:38;;;;;;;4.10;2.70;;;3.30;52.80;;;;;;4995243;28;20550;-58
2021/03/17 03:57:20;;;;;;;6.93;2.23;;;3.30;53.40;;;;;;4992215;28;20307;-58
2021/03/17 03:59:51;;;;;;;3.27;2.10;;;3.20;53.70;;;;;;5010619;28;20290;-58
2021/03/17 04:02:23;;;;;;;6.50;1.57;;;3.20;53.80;;;;;;4995274;28;20212;-58
2021/03/17 04:04:50;;;;;;;2.77;1.90;;;3.10;53.70;;;;;;4994152;28;20608;-58
2021/03/17 04:07:18;;;;;;;3.53;1.87;;;3.00;53.70;;;;;;4992848;28;20275;-58
2021/03/17 04:09:50;;;;;;;6.30;1.93;;;2.90;54.00;;;;;;4992224;28;20213;-58
2021/03/17 04:12:21;;;;;;;2.10;1.80;;;2.90;54.10;;;;;;4983953;28;20651;-58
2021/03/17 04:14:56;;;;;;;1.77;1.63;;;2.80;54.30;;;;;;4991332;28;20236;-58
2021/03/17 04:17:33;;;;;;;2.30;1.77;;;2.80;54.80;;;;;;4992016;28;20222;-58
2021/03/17 04:20:11;;;;;;;1.57;1.47;;;2.70;55.50;;;;;;4987764;28;20649;-59
2021/03/17 04:22:39;;;;;;;2.50;2.13;;;2.50;55.70;;;;;;5001542;28;20246;-58
2021/03/17 04:25:08;;;;;;;2.40;1.77;;;2.40;55.90;;;;;;5012331;28;20230;-58
2021/03/17 04:27:35;;;;;;;4.17;1.70;;;2.20;55.90;;;;;;5010685;28;20293;-58
2021/03/17 04:30:07;;;;;;;3.13;1.83;;;2.20;56.10;;;;;;5010732;28;20298;-58
2021/03/17 04:32:35;;;;;;;3.43;1.90;;;2.30;56.00;;;;;;5009586;28;20607;-58
2021/03/17 04:35:02;;;;;;;2.77;2.30;;;2.40;55.90;;;;;;5010941;28;20265;-58
2021/03/17 04:37:30;;;;;;;2.43;1.70;;;2.30;55.60;;;;;;4997403;28;20629;-58
2021/03/17 04:39:58;;;;;;;4.63;2.20;;;2.30;55.70;;;;;;5014280;28;20208;-58
2021/03/17 04:42:26;;;;;;;4.87;2.00;;;2.30;55.70;;;;;;5012157;28;20216;-58
2021/03/17 04:44:53;;;;;;;3.27;1.83;;;2.30;55.50;;;;;;4999227;28;20549;-58
2021/03/17 04:47:20;;;;;;;3.27;1.87;;;2.20;55.50;;;;;;5014173;28;20239;-58
2021/03/17 04:49:49;;;;;;;2.23;1.80;;;2.20;55.80;;;;;;5013187;28;20204;-58
2021/03/17 04:52:19;;;;;;;2.43;1.73;;;2.20;55.90;;;;;;5004804;28;20211;-58
2021/03/17 04:54:46;;;;;;;6.10;3.27;;;2.30;56.00;;;;;;5004985;28;20212;-58
2021/03/17 04:57:16;;;;;;;4.47;2.17;;;2.30;56.00;;;;;;5013801;28;20208;-58
2021/03/17 04:59:44;;;;;;;2.40;1.93;;;2.30;56.10;;;;;;5013973;28;20226;-58
2021/03/17 05:02:11;;;;;;;2.50;2.30;;;2.40;56.30;;;;;;4985380;28;20220;-58
2021/03/17 05:04:41;;;;;;;3.40;1.93;;;2.50;56.30;;;;;;4998074;28;20614;-58
2021/03/17 05:07:10;;;;;;;2.90;2.20;;;2.50;56.30;;;;;;4999730;28;20622;-58
2021/03/17 05:09:38;;;;;;;5.93;2.03;;;2.60;56.50;;;;;;5003179;28;20254;-58
2021/03/17 05:12:07;;;;;;;4.80;2.40;;;2.60;56.80;;;;;;5006761;28;20637;-58
2021/03/17 05:14:35;;;;;;;3.87;2.20;;;2.60;56.80;;;;;;5005250;28;20200;-57
2021/03/17 05:17:04;;;;;;;5.67;2.00;;;2.60;56.80;;;;;;4999368;28;20218;-58
2021/03/17 05:19:31;;;;;;;2.93;1.93;;;2.50;56.70;;;;;;5012549;28;20219;-58
2021/03/17 05:22:00;;;;;;;9.43;2.10;;;2.50;56.50;;;;;;5003571;28;20332;-58
2021/03/17 05:24:28;;;;;;;4.90;1.93;;;2.50;56.70;;;;;;5003011;28;20219;-58
2021/03/17 05:26:56;;;;;;;2.87;1.63;;;2.50;56.90;;;;;;5006247;28;20228;-58
2021/03/17 05:29:25;;;;;;;3.67;1.93;;;2.50;56.90;;;;;;5010204;28;20200;-58
2021/03/17 05:31:54;;;;;;;3.67;2.17;;;2.50;56.90;;;;;;5008842;28;20230;-58
2021/03/17 05:34:21;;;;;;;6.90;2.23;;;2.50;56.60;;;;;;5009598;28;20207;-59
2021/03/17 05:36:48;;;;;;;4.60;1.93;;;2.50;56.60;;;;;;5010498;28;20306;-59
2021/03/17 05:39:15;;;;;;;4.40;2.00;;;2.50;56.70;;;;;;4997875;28;20696;-59
2021/03/17 05:41:43;;;;;;;12.13;2.00;;;2.60;56.80;;;;;;5008090;28;20654;-59
2021/03/17 05:44:10;;;;;;;5.23;1.80;;;2.70;56.90;;;;;;5006019;28;20226;-59
2021/03/17 05:46:39;;;;;;;4.97;1.73;;;2.80;56.60;;;;;;5010281;28;20571;-59
2021/03/17 05:49:06;;;;;;;3.70;1.80;;;2.80;56.50;;;;;;5012724;28;20234;-59
2021/03/17 05:51:34;;;;;;;4.50;1.97;;;2.90;56.70;;;;;;5008617;28;20266;-59
2021/03/17 05:54:05;;;;;;;4.97;1.80;;;3.00;56.40;;;;;;5005447;28;20239;-59
2021/03/17 05:56:32;;;;;;;6.33;2.33;;;3.20;56.40;;;;;;5012493;28;20208;-59
2021/03/17 05:59:01;;;;;;;7.20;2.20;;;3.40;56.30;;;;;;5009435;28;20208;-59
2021/03/17 06:01:29;;;;;;;7.60;2.70;;;3.60;56.80;;;;;;5013054;28;20204;-59
2021/03/17 06:03:58;;;;;;;3.13;2.20;;;3.70;56.60;;;;;;5008142;28;20539;-59
2021/03/17 06:06:28;;;;;;;2.13;1.87;;;4.00;56.30;;;;;;5013042;28;20238;-59
2021/03/17 06:09:00;;;;;;;4.90;2.03;;;4.20;56.60;;;;;;5008157;28;20208;-59
2021/03/17 06:11:27;;;;;;;7.77;2.53;;;4.50;56.60;;;;;;5012499;28;20208;-59
2021/03/17 06:13:56;;;;;;;7.07;1.90;;;4.80;56.30;;;;;;4992944;28;20627;-59
2021/03/17 06:16:24;;;;;;;4.00;2.37;;;5.10;55.60;;;;;;5008331;28;20564;-59
2021/03/17 06:18:54;;;;;;;4.07;2.00;;;5.30;54.60;;;;;;5007783;28;20213;-59
2021/03/17 06:21:21;;;;;;;8.67;2.70;;;5.40;53.90;;;;;;5010000;28;20220;-59
2021/03/17 06:23:51;;;;;;;4.13;2.50;;;5.60;53.80;;;;;;4995187;28;20239;-59
2021/03/17 06:26:18;;;;;;;3.97;2.10;;;5.80;53.20;;;;;;4994765;28;20546;-59
2021/03/17 06:28:46;;;;;;;7.60;2.10;;;5.80;53.40;;;;;;4995181;28;20203;-59
2021/03/17 06:31:20;;;;;;;6.27;2.33;;;5.90;53.60;;;;;;5012748;28;20212;-59
2021/03/17 06:33:50;;;;;;;7.07;2.70;;;6.10;53.70;;;;;;5008993;28;20214;-59
2021/03/17 06:36:22;;;;;;;4.90;2.10;;;6.30;53.40;;;;;;4994619;28;20215;-59
2021/03/17 06:38:50;;;;;;;2.17;1.90;;;6.60;52.40;;;;;;5012462;28;20294;-59
2021/03/17 06:41:18;;;;;;;4.10;2.47;;;6.80;51.50;;;;;;5010164;28;20222;-59
2021/03/17 06:43:49;;;;;;;4.93;1.77;;;6.90;50.70;;;;;;5012532;28;20215;-59
2021/03/17 06:46:19;;;;;;;4.73;1.90;;;7.20;50.00;;;;;;4994974;28;20652;-59
2021/03/17 06:48:58;;;;;;;5.63;2.10;;;7.30;48.90;;;;;;5011240;28;20203;-59
2021/03/17 06:51:29;;;;;;;5.43;2.50;;;7.50;48.50;;;;;;5011748;28;20200;-59
2021/03/17 06:53:59;;;;;;;10.23;3.20;;;7.60;48.30;;;;;;5003598;28;20196;-59
2021/03/17 06:56:32;;;;;;;9.00;4.10;;;7.60;48.00;;;;;;5006551;28;20215;-59
2021/03/17 06:59:00;;;;;;;13.27;4.63;;;7.70;47.80;;;;;;5003269;28;20724;-59
2021/03/17 07:01:36;;;;;;;8.20;3.27;;;7.80;47.40;;;;;;4994918;28;20218;-59
2021/03/17 07:04:19;;;;;;;7.80;3.27;;;8.00;47.00;;;;;;5005201;28;20321;-59
2021/03/17 07:06:49;;;;;;;4.00;2.37;;;8.00;46.70;;;;;;4993303;28;20297;-58
2021/03/17 07:09:22;;;;;;;6.47;3.00;;;8.10;46.10;;;;;;5010050;28;20203;-59
2021/03/17 07:11:51;;;;;;;6.83;2.67;;;8.20;45.90;;;;;;4992474;28;20220;-59
2021/03/17 07:14:26;;;;;;;9.10;2.97;;;8.30;45.90;;;;;;5009161;28;20215;-59
2021/03/17 07:16:54;;;;;;;6.07;2.67;;;8.30;45.50;;;;;;5007343;28;20245;-59
2021/03/17 07:19:45;;;;;;;6.00;2.93;;;8.40;45.50;;;;;;5006144;28;20622;-59
2021/03/17 07:22:14;;;;;;;4.00;1.80;;;8.50;45.30;;;;;;5009724;28;20803;-59
2021/03/17 07:24:44;;;;;;;10.70;2.77;;;8.60;45.30;;;;;;5011257;28;20222;-60
2021/03/17 07:27:16;;;;;;;6.10;2.43;;;8.70;45.20;;;;;;5010540;28;20223;-59
2021/03/17 07:29:44;;;;;;;5.10;2.43;;;8.80;45.20;;;;;;4999796;28;20222;-58
2021/03/17 07:32:11;;;;;;;5.07;2.20;;;8.90;45.00;;;;;;4993010;28;20212;-58
2021/03/17 07:34:38;;;;;;;5.47;2.10;;;8.90;44.70;;;;;;4990763;28;20247;-58
2021/03/17 07:37:08;;;;;;;4.73;2.20;;;9.10;44.80;;;;;;5003117;28;20694;-59
2021/03/17 07:39:37;;;;;;;3.47;1.80;;;9.30;44.50;;;;;;5007537;28;20562;-59
2021/03/17 07:42:07;;;;;;;4.23;1.87;;;9.50;44.00;;;;;;5000749;28;20212;-59
2021/03/17 07:44:40;;;;;;;5.43;1.80;;;9.60;43.40;;;;;;4995709;28;20635;-59
2021/03/17 07:47:09;;;;;;;12.73;2.07;;;9.80;43.00;;;;;;5010942;28;20239;-59
2021/03/17 07:49:42;;;;;;;4.47;1.80;;;10.00;43.20;;;;;;5010898;28;20208;-59
2021/03/17 07:52:19;;;;;;;3.40;2.00;;;10.20;42.90;;;;;;5009581;28;20227;-59
2021/03/17 07:54:52;;;;;;;4.43;1.93;;;10.40;42.20;;;;;;4992746;28;20689;-59
2021/03/17 07:57:21;;;;;;;3.03;2.00;;;10.60;41.90;;;;;;5010686;28;20212;-59
2021/03/17 07:59:54;;;;;;;6.10;2.00;;;10.80;41.50;;;;;;4994904;28;20204;-58
2021/03/17 08:02:22;;;;;;;5.60;2.17;;;11.10;41.20;;;;;;5008217;28;20208;-56
2021/03/17 08:04:51;;;;;;;11.10;2.27;;;11.20;41.20;;;;;;4986012;28;20580;-59
2021/03/17 08:07:18;;;;;;;3.83;1.53;;;11.50;41.10;;;;;;4984140;28;20228;-56
2021/03/17 08:09:45;;;;;;;7.67;2.00;;;11.70;40.80;;;;;;5011467;28;20215;-57
2021/03/17 08:12:12;;;;;;;4.30;2.03;;;11.90;40.40;;;;;;5011953;28;20592;-58
2021/03/17 08:14:43;;;;;;;2.60;1.90;;;12.10;40.00;;;;;;4998454;28;20261;-59
2021/03/17 08:17:11;;;;;;;4.37;1.97;;;12.30;40.00;;;;;;4996509;28;20207;-57
2021/03/17 08:20:22;;;;;;;5.43;2.37;;;12.50;39.60;;;;;;4994216;28;20219;-58
2021/03/17 08:22:51;;;;;;;4.70;2.33;;;12.80;39.60;;;;;;5007514;28;20255;-59
2021/03/17 08:25:46;;;;;;;5.37;2.37;;;13.00;39.30;;;;;;5003848;28;20207;-59
2021/03/17 08:28:19;;;;;;;5.90;2.50;;;13.20;38.90;;;;;;5007856;28;20692;-59
2021/03/17 08:30:48;;;;;;;4.23;2.70;;;13.40;38.20;;;;;;5012046;28;20246;-58
2021/03/17 08:33:35;;;;;;;10.27;3.10;;;13.50;38.20;;;;;;5004818;28;20211;-58
2021/03/17 08:36:12;;;;;;;9.43;2.93;;;13.60;37.20;;;;;;5005857;28;20211;-58
2021/03/17 08:38:56;;;;;;;7.33;3.03;;;13.80;37.90;;;;;;4998381;28;20211;-59
2021/03/17 08:41:46;;;;;;;8.03;3.33;;;14.00;37.90;;;;;;4991765;28;20315;-59
2021/03/17 08:44:19;;;;;;;8.00;3.50;;;14.20;37.00;;;;;;5007160;28;20200;-59
2021/03/17 08:46:47;;;;;;;7.60;3.50;;;14.40;37.00;;;;;;5011116;28;20327;-59
2021/03/17 08:49:29;;;;;;;8.63;3.70;;;14.60;36.60;;;;;;4996051;28;20204;-59
2021/03/17 08:52:01;;;;;;;7.53;2.57;;;14.80;36.80;;;;;;5010009;28;20210;-58
2021/03/17 08:54:33;;;;;;;6.70;2.83;;;14.90;36.30;;;;;;5012257;28;20208;-58
2021/03/17 08:57:02;;;;;;;6.17;2.70;;;15.10;35.80;;;;;;5011743;28;20210;-58
2021/03/17 08:59:50;;;;;;;6.80;4.03;;;15.20;34.90;;;;;;5011701;28;20216;-58
2021/03/17 09:02:26;;;;;;;5.73;3.10;;;15.40;34.70;;;;;;5007091;28;20219;-58
2021/03/17 09:04:57;;;;;;;9.57;2.90;;;15.60;34.10;;;;;;5008668;28;20285;-59
2021/03/17 09:07:29;;;;;;;4.70;2.27;;;15.70;34.40;;;;;;5012911;28;20705;-58
2021/03/17 09:10:13;;;;;;;5.53;2.33;;;15.80;34.30;;;;;;5008277;28;20290;-59
2021/03/17 09:12:43;;;;;;;6.57;2.10;;;16.00;34.20;;;;;;5014114;28;20235;-59
2021/03/17 09:15:13;;;;;;;3.47;1.83;;;16.10;34.20;;;;;;5014232;28;20219;-59
2021/03/17 09:17:47;;;;;;;5.27;2.67;;;16.20;34.20;;;;;;4994997;28;20618;-58
2021/03/17 09:20:28;;;;;;;7.03;3.27;;;16.30;33.40;;;;;;5013163;28;20610;-57
2021/03/17 09:23:05;;;;;;;10.90;4.57;;;16.40;32.90;;;;;;5010923;28;20354;-58
2021/03/17 09:25:35;;;;;;;9.13;4.93;;;16.50;32.60;;;;;;5013938;28;20218;-57
2021/03/17 09:28:23;;;;;;;11.97;7.47;;;16.50;32.80;;;;;;5013114;28;20704;-58
2021/03/17 09:31:08;;;;;;;13.33;6.60;;;16.60;32.70;;;;;;5011518;28;20273;-59
2021/03/17 09:33:38;;;;;;;6.43;3.30;;;16.80;32.00;;;;;;4994095;28;20208;-57
2021/03/17 09:36:08;;;;;;;6.73;3.57;;;16.80;29.30;;;;;;5005576;28;20200;-61
2021/03/17 09:38:39;;;;;;;8.17;4.13;;;16.70;29.30;;;;;;4996785;28;20218;-56
2021/03/17 09:41:21;;;;;;;15.20;3.50;;;16.60;30.00;;;;;;5008093;28;20212;-58
2021/03/17 09:44:03;;;;;;;7.80;2.73;;;16.70;30.80;;;;;;5009034;28;20212;-59
2021/03/17 09:46:37;;;;;;;4.13;1.30;;;16.80;30.50;;;;;;5008682;28;20208;-60
2021/03/17 09:49:13;;;;;;;12.13;1.60;;;16.90;30.30;;;;;;5002857;28;20259;-62
2021/03/17 09:51:42;;;;;;;2.93;1.57;;;16.90;29.40;;;;;;5005709;28;20280;-57
2021/03/17 09:54:12;;;;;;;3.43;1.30;;;16.90;29.20;;;;;;5008363;28;20203;-57
2021/03/17 09:56:44;;;;;;;1.70;1.50;;;16.80;28.90;;;;;;5009986;28;20230;-59
2021/03/17 09:59:34;;;;;;;1.83;1.30;;;16.80;29.20;;;;;;5001605;28;20216;-57
2021/03/17 10:02:21;;;;;;;1.90;1.43;;;16.70;28.10;;;;;;5009635;28;20228;-58
2021/03/17 10:04:52;;;;;;;3.33;1.40;;;16.70;28.60;;;;;;5013722;28;20215;-59
2021/03/17 10:07:24;;;;;;;1.93;1.63;;;16.70;29.10;;;;;;5007362;28;20315;-58
2021/03/17 10:09:53;;;;;;;1.70;1.40;;;16.70;29.50;;;;;;5011055;28;20204;-59
2021/03/17 10:12:22;;;;;;;1.80;1.50;;;16.60;30.00;;;;;;5012589;28;20247;-58
2021/03/17 10:14:57;;;;;;;3.40;1.73;;;16.50;29.50;;;;;;4996727;28;20226;-59
2021/03/17 10:17:27;;;;;;;1.77;1.63;;;16.40;28.90;;;;;;5010431;28;20652;-57
2021/03/17 10:19:58;;;;;;;2.50;1.60;;;16.30;28.50;;;;;;4995999;28;20298;-60
2021/03/17 10:22:27;;;;;;;2.53;1.53;;;16.40;28.40;;;;;;5008766;28;20271;-57
2021/03/17 10:24:57;;;;;;;1.37;1.20;;;16.40;28.60;;;;;;5011210;28;20204;-58
2021/03/17 10:27:32;;;;;;;1.87;1.30;;;16.40;27.50;;;;;;5013193;28;20295;-57
2021/03/17 10:30:20;;;;;;;2.80;1.50;;;16.50;28.50;;;;;;5011060;28;20235;-60
2021/03/17 10:32:48;;;;;;;2.30;1.60;;;16.70;29.20;;;;;;4999251;28;20278;-58
2021/03/17 10:35:17;;;;;;;3.67;1.03;;;17.00;28.90;;;;;;5010249;28;20558;-57
2021/03/17 10:37:49;;;;;;;2.87;1.33;;;17.30;28.20;;;;;;5013828;28;20215;-59
2021/03/17 10:40:22;;;;;;;2.47;1.10;;;17.30;27.10;;;;;;4992023;28;20208;-57
2021/03/17 10:42:58;;;;;;;10.27;1.63;;;17.30;27.50;;;;;;5010011;28;20208;-57
2021/03/17 10:45:29;;;;;;;1.10;1.00;;;17.40;28.10;;;;;;5012891;28;20216;-58
2021/03/17 10:47:56;;;;;;;1.57;1.20;;;17.30;27.30;;;;;;4992099;28;20228;-59
2021/03/17 10:50:34;;;;;;;2.67;1.50;;;17.30;27.20;;;;;;4991808;28;20200;-58
2021/03/17 10:53:13;;;;;;;3.33;1.30;;;17.40;27.90;;;;;;5009016;28;20540;-58
2021/03/17 10:55:40;;;;;;;2.50;1.13;;;17.50;26.40;;;;;;4987154;28;20241;-58
2021/03/17 10:58:18;;;;;;;4.60;1.20;;;17.50;27.60;;;;;;4994584;28;20598;-57
2021/03/17 11:01:06;;;;;;;6.70;1.37;;;17.60;28.30;;;;;;4999518;28;20225;-59
2021/03/17 11:03:40;;;;;;;2.40;1.30;;;17.80;27.60;;;;;;5002519;28;20207;-58
2021/03/17 11:06:16;;;;;;;5.13;1.30;;;17.90;27.60;;;;;;4994767;28;20707;-59
2021/03/17 11:08:46;;;;;;;2.47;1.20;;;17.90;27.40;;;;;;5008142;28;20684;-60
2021/03/17 11:11:13;;;;;;;1.73;1.23;;;18.00;27.80;;;;;;5009675;28;20208;-58
2021/03/17 11:13:43;;;;;;;1.20;1.07;;;18.20;27.00;;;;;;5006363;28;20247;-59
2021/03/17 11:16:12;;;;;;;1.40;1.20;;;18.30;26.30;;;;;;5011299;28;20212;-58
2021/03/17 11:18:52;;;;;;;2.53;1.10;;;18.30;26.20;;;;;;4995367;28;20208;-59
2021/03/17 11:21:35;;;;;;;1.70;1.40;;;18.00;26.90;;;;;;5008968;28;20273;-57
2021/03/17 11:24:15;;;;;;;1.23;1.10;;;17.70;26.30;;;;;;5008666;28;20231;-59
2021/03/17 11:26:42;;;;;;;1.30;1.20;;;17.60;25.70;;;;;;4998825;28;20680;-56
2021/03/17 11:29:17;;;;;;;1.57;0.90;;;17.50;25.80;;;;;;5008664;28;20234;-59
2021/03/17 11:31:46;;;;;;;3.13;1.10;;;17.60;26.20;;;;;;4996056;28;20298;-57
2021/03/17 11:34:15;;;;;;;1.10;1.00;;;17.50;26.20;;;;;;4987297;28;20219;-57
2021/03/17 11:36:42;;;;;;;1.33;1.23;;;17.40;26.40;;;;;;5006584;28;20215;-57
2021/03/17 11:39:13;;;;;;;1.00;0.90;;;17.40;25.70;;;;;;5012810;28;20204;-58
2021/03/17 11:41:43;;;;;;;2.10;1.23;;;17.40;25.10;;;;;;5012472;28;20216;-58
2021/03/17 11:44:14;;;;;;;1.03;0.97;;;17.50;26.10;;;;;;5008066;28;20302;-59
2021/03/17 11:46:41;;;;;;;1.10;1.00;;;17.40;25.30;;;;;;4987286;28;20208;-61
2021/03/17 11:49:08;;;;;;;3.63;1.23;;;17.50;25.60;;;;;;4987611;28;20626;-57
2021/03/17 11:51:35;;;;;;;1.10;1.00;;;17.50;24.40;;;;;;5003669;28;20208;-59
2021/03/17 11:54:02;;;;;;;1.10;0.90;;;17.50;25.00;;;;;;5013583;28;20203;-58
2021/03/17 11:56:29;;;;;;;1.93;0.80;;;17.50;24.80;;;;;;5011324;28;20210;-59
2021/03/17 11:58:58;;;;;;;0.90;0.60;;;17.50;24.60;;;;;;5001042;28;20220;-59
2021/03/17 12:01:26;;;;;;;0.97;0.80;;;17.60;24.40;;;;;;5003127;28;20290;-59
2021/03/17 12:03:52;;;;;;;2.37;0.77;;;17.60;23.40;;;;;;4997433;28;20653;-59
2021/03/17 12:06:19;;;;;;;1.20;1.07;;;17.50;23.50;;;;;;5012611;28;20219;-59
2021/03/17 12:08:46;;;;;;;2.03;0.97;;;17.40;23.90;;;;;;5012141;28;20707;-59
2021/03/17 12:11:20;;;;;;;0.80;0.80;;;17.30;23.40;;;;;;4993210;28;20641;-59
2021/03/17 12:13:47;;;;;;;1.10;0.90;;;17.20;24.10;;;;;;5004659;28;20208;-59
2021/03/17 12:16:15;;;;;;;0.90;0.90;;;17.30;24.70;;;;;;5003603;28;20645;-58
2021/03/17 12:18:45;;;;;;;1.20;1.00;;;17.30;24.20;;;;;;5011525;28;20293;-58
2021/03/17 12:21:13;;;;;;;3.90;0.80;;;17.20;23.30;;;;;;4997290;28;20721;-58
2021/03/17 12:23:40;;;;;;;4.40;1.17;;;17.30;23.70;;;;;;5014491;28;20583;-59
2021/03/17 12:26:07;;;;;;;1.03;0.93;;;17.40;24.10;;;;;;4989722;28;20274;-59
2021/03/17 12:28:34;;;;;;;2.53;0.70;;;17.60;25.90;;;;;;4999074;28;20231;-59
2021/03/17 12:31:02;;;;;;;2.87;1.10;;;17.70;25.60;;;;;;5010393;28;20573;-59
2021/03/17 12:33:28;;;;;;;1.57;1.20;;;17.90;25.20;;;;;;5014528;28;20211;-59
2021/03/17 12:35:58;;;;;;;1.20;1.00;;;18.10;24.40;;;;;;4998509;28;20563;-59
2021/03/17 12:38:25;;;;;;;0.80;0.80;;;18.10;24.20;;;;;;5014548;28;20207;-59
2021/03/17 12:40:51;;;;;;;0.80;0.80;;;18.20;24.00;;;;;;5009813;28;20242;-59
2021/03/17 12:43:19;;;;;;;0.90;0.90;;;18.20;24.10;;;;;;4991927;28;20224;-59
2021/03/17 12:45:47;;;;;;;6.43;1.17;;;18.40;24.10;;;;;;5011083;28;20277;-59
2021/03/17 12:48:17;;;;;;;2.13;1.13;;;18.40;23.90;;;;;;5008993;28;20235;-59
2021/03/17 12:50:44;;;;;;;1.30;1.17;;;18.40;23.30;;;;;;5009783;28;20208;-59
2021/03/17 12:53:17;;;;;;;3.03;1.40;;;18.50;23.90;;;;;;5012365;28;20428;-59
2021/03/17 12:55:43;;;;;;;2.97;0.97;;;18.50;23.40;;;;;;5013656;28;20243;-59
2021/03/17 12:58:10;;;;;;;0.70;0.70;;;18.30;22.80;;;;;;5013849;28;20324;-59
2021/03/17 13:00:37;;;;;;;0.80;0.80;;;18.10;23.20;;;;;;5012901;28;20679;-59
2021/03/17 13:03:04;;;;;;;1.00;0.90;;;18.00;23.10;;;;;;5012834;28;20294;-59
2021/03/17 13:05:30;;;;;;;3.80;1.33;;;17.90;23.40;;;;;;5011592;28;20223;-59
2021/03/17 13:07:57;;;;;;;1.20;1.00;;;17.90;23.50;;;;;;5013222;28;20231;-59
2021/03/17 13:10:24;;;;;;;2.47;0.90;;;18.00;23.60;;;;;;5014287;28;20204;-59
2021/03/17 13:13:13;;;;;;;3.53;1.27;;;18.00;23.90;;;;;;5007078;28;20277;-59